Terminal Aerodrome Forecast
Issued by NWS

Home | Current Version | Previous Version | Text Only | Print | Product List | Glossary On
Versions: 1 2 3 4 5 6 7 8 9 10 11 12 13 14 15 16 17 18 19 20
314
FTUS46 KSEW 261744
TAFPAE
TAF
KPAE 261744Z 2618/2718 35005KT P6SM FEW002 SCT250
     FM262000 36007KT P6SM BKN120 BKN200
     FM270400 02004KT P6SM BKN040 BKN120
     FM270900 03004KT P6SM VCSH BKN020 OVC040
     FM271200 VRB04KT 5SM BR VCSH OVC013
     FM271400 VRB04KT 5SM -SHRA BR OVC012
      TEMPO 2714/2717 2SM -SHRA BR OVC006=

USA.gov is the U.S. government's official web portal to all federal, state and local government web resources and services.